Los Osos, CA (93402)

6:38 AM PDT on August 21, 2014 (GMT -0700)
Los Osos/Redfieldwoods | Change Station
CLOSE
Current Station
Personal Weather Station
Location: Los Osos, CA
Elevation: 157 ft
Nearby Weather Stations

Elev 157 ft 35.31 °N, 120.84 °W | Updated 7 minutes ago

Scattered Clouds
Scattered Clouds
58.5 °F
Feels Like 58.5 °F
N
0.0
Wind Variable Wind from WSW
Gusts 5.0 mph

Today
High -- | Low -- °F
--% Chance of Precip.
Yesterday
High -- | Low -- °F
Precip. -- in
6:27 AM 7:44 PM
Waning Crescent, 14% visible
Pressure 29.95 in
Visibility 10.0 miles
Clouds Scattered Clouds 400 ft
Dew Point 57 °F
Humidity 96%
Rainfall 0.00 in
Snow Depth Not available.
UV 0 out of 12
Pollen 7.50 out of 12
Air Quality Not available.
Flu Activity Not available.
SPECI KSBP 211328Z 00000KT 10SM SCT004 13/12 A2995 RMK AO2 $

More Conditions Fewer Conditions

Pressure 29.95 in
Visibility 10.0 miles
Clouds Scattered Clouds 400 ft
Dew Point 57 °F
Humidity 96%
Rainfall 0.00 in
Snow Depth Not available.
UV 0 out of 12
Pollen 7.50 out of 12
Air Quality Not available.
Flu Activity Not available.
SPECI KSBP 211328Z 00000KT 10SM SCT004 13/12 A2995 RMK AO2 $

More Conditions Fewer Conditions

10-Day Weather Forecast

Almanac

Astronomy

Aug. 21, 2014 Rise Set
Actual Time 6:27 AM PDT 7:44 PM PDT
Civil Twilight 6:00 AM PDT 8:11 PM PDT
Nautical Twilight 5:29 AM PDT 8:42 PM PDT
Astronomical Twilight 4:56 AM PDT 9:15 PM PDT
Moon 3:05 AM PDT 5:14 PM PDT
Length of Visible Light 14h 10m
Length of Day
13h 17m
Tomorrow will be 2m 2s shorter.
Waning Crescent, 14% of the Moon is Illuminated
Today
Waning Crescent
Aug 25
New
Sep 2
First Quarter
Sep 8
Full
Sep 15
Last Quarter

Today's Extremes

State Highs State Lows

Community

WunderPhotos

Upload Photos

1,745,918 photos uploaded!

WunderBlogs® & News

Nearby

Snow Depth

Station Depth Elevation
Leavitt Lake 0 in 9400 ft
Leavitt Meadows 1 in 7200 ft
Summit Meadow 1 in 9122 ft
Blue Lakes 0 in 8000 ft
Forestdale Creek 0 in 8029 ft

Earthquake Activity

City Distance Mag. Time & Date
King City, California 69 miles 2.7 10:26 PM PDT
2014-08-15
Kettleman City, California 68 miles 2.9 11:32 PM PDT
2014-08-14
King City, California 69 miles 2.9 8:01 PM PDT
2014-08-14
Minimum magnitude displayed is 2.5.

Coastal Water Temperatures

Place Temperature
No Stations Reporting

Nearby Weather Stations